createdAt,value
2018-05-11T00:01:17.118Z,101452.95
2018-05-11T00:03:45.439Z,101454.23
2018-05-11T00:06:13.852Z,101446.05
2018-05-11T00:08:42.157Z,101448.19
2018-05-11T00:11:10.550Z,101444.02
2018-05-11T00:13:39.122Z,101444.27
2018-05-11T00:16:07.469Z,101457.42
2018-05-11T00:18:35.777Z,101456.27
2018-05-11T00:21:04.511Z,101463.22
2018-05-11T00:23:32.867Z,101460.81
2018-05-11T00:26:01.230Z,101464.08
2018-05-11T00:28:29.674Z,101467.37
2018-05-11T00:30:58.031Z,101474.37
2018-05-11T00:33:26.389Z,101473.38
2018-05-11T00:35:55.106Z,101481.94
2018-05-11T00:38:23.408Z,101477.25
2018-05-11T00:40:51.704Z,101480.54
2018-05-11T00:43:20.040Z,101483.46
2018-05-11T00:45:48.357Z,101489.25
2018-05-11T00:48:16.681Z,101494.08
2018-05-11T00:50:45.173Z,101494.61
2018-05-11T00:53:13.477Z,101503.56
2018-05-11T00:55:49.789Z,101496.43
2018-05-11T00:58:18.099Z,101491.27
2018-05-11T01:00:46.467Z,101500.32
2018-05-11T01:03:15.152Z,101508.87
2018-05-11T01:05:43.461Z,101502.39
2018-05-11T01:08:11.810Z,101503.91
2018-05-11T01:10:40.448Z,101500.38
2018-05-11T01:13:08.772Z,101495.91
2018-05-11T01:15:37.107Z,101505.77
2018-05-11T01:18:05.609Z,101501.05
2018-05-11T01:20:33.941Z,101514.98
2018-05-11T01:23:02.292Z,101517.55
2018-05-11T01:25:30.894Z,101518.79
2018-05-11T01:27:59.563Z,101520.56
2018-05-11T01:30:27.905Z,101518.79
2018-05-11T01:32:56.292Z,101518.95
2018-05-11T01:35:25.464Z,101527.42
2018-05-11T01:37:53.815Z,101535.60
2018-05-11T01:40:22.182Z,101530.83
2018-05-11T01:42:50.907Z,101530.42
2018-05-11T01:45:19.232Z,101534.41
2018-05-11T01:47:47.942Z,101538.05
2018-05-11T01:50:16.254Z,101540.17
2018-05-11T01:52:44.602Z,101541.14
2018-05-11T01:55:13.322Z,101538.70
2018-05-11T01:57:41.657Z,101537.64
2018-05-11T02:00:10.026Z,101534.26
2018-05-11T02:02:38.403Z,101540.94
2018-05-11T02:05:06.775Z,101544.46
2018-05-11T02:07:35.132Z,101537.75
2018-05-11T02:10:03.549Z,101553.70
2018-05-11T02:12:31.975Z,101553.22
2018-05-11T02:15:00.335Z,101561.39
2018-05-11T02:17:28.935Z,101560.23
2018-05-11T02:19:57.301Z,101570.17
2018-05-11T02:22:25.695Z,101571.77
2018-05-11T02:24:55.224Z,101569.28
2018-05-11T02:27:23.559Z,101568.77
2018-05-11T02:29:51.907Z,101575.39
2018-05-11T02:32:20.247Z,101583.88
2018-05-11T02:34:48.592Z,101583.83
2018-05-11T02:37:16.906Z,101584.58
2018-05-11T02:39:45.522Z,101592.16
2018-05-11T02:42:13.829Z,101591.55
2018-05-11T02:44:42.129Z,101603.36
2018-05-11T02:47:10.614Z,101605.83
2018-05-11T02:49:38.939Z,101602.75
2018-05-11T02:52:07.238Z,101607.05
2018-05-11T02:54:35.602Z,101614.22
2018-05-11T02:57:03.939Z,101618.68
2018-05-11T02:59:32.531Z,101625.55
2018-05-11T03:02:00.891Z,101619.93
2018-05-11T03:04:29.221Z,101633.91
2018-05-11T03:06:57.559Z,101632.53
2018-05-11T03:09:26.373Z,101629.61
2018-05-11T03:11:54.720Z,101643.20
2018-05-11T03:14:23.021Z,101637.13
2018-05-11T03:16:51.599Z,101642.50
2018-05-11T03:19:19.983Z,101639.97
2018-05-11T03:21:48.304Z,101641.97
2018-05-11T03:24:16.853Z,101646.23
2018-05-11T03:26:45.164Z,101647.69
2018-05-11T03:29:13.476Z,101641.16
2018-05-11T03:31:41.914Z,101650.05
2018-05-11T03:34:10.233Z,101650.27
2018-05-11T03:36:38.530Z,101653.06
2018-05-11T03:39:07.096Z,101657.81
2018-05-11T03:41:35.560Z,101663.23
2018-05-11T03:44:03.943Z,101667.48
2018-05-11T03:46:32.295Z,101674.61
2018-05-11T03:49:00.623Z,101675.20
2018-05-11T03:51:28.991Z,101676.17
2018-05-11T03:53:57.594Z,101680.83
2018-05-11T03:56:25.975Z,101684.48
2018-05-11T03:58:54.333Z,101673.70
2018-05-11T04:01:34.466Z,101683.12
2018-05-11T04:04:14.815Z,101683.77
2018-05-11T04:06:55.223Z,101688.06
2018-05-11T04:09:23.552Z,101673.05
2018-05-11T04:11:51.859Z,101678.36
2018-05-11T04:14:21.468Z,101685.00
2018-05-11T04:16:49.804Z,101680.17
2018-05-11T04:19:18.105Z,101676.31
2018-05-11T04:21:46.482Z,101676.06
2018-05-11T04:24:14.799Z,101680.38
2018-05-11T04:26:43.142Z,101679.06
2018-05-11T04:29:11.605Z,101689.36
2018-05-11T04:31:39.915Z,101684.26
2018-05-11T04:34:08.253Z,101684.27
2018-05-11T04:36:38.073Z,101689.34
2018-05-11T04:39:06.391Z,101692.58
2018-05-11T04:41:34.746Z,101697.83
2018-05-11T04:44:03.225Z,101697.88
2018-05-11T04:46:31.613Z,101707.04
2018-05-11T04:49:00.008Z,101710.10
2018-05-11T04:51:28.582Z,101703.27
2018-05-11T04:53:56.936Z,101710.95
2018-05-11T04:56:25.249Z,101709.44
2018-05-11T04:58:54.029Z,101719.83
2018-05-11T05:01:22.364Z,101723.38
2018-05-11T05:03:50.701Z,101733.84
2018-05-11T05:06:19.041Z,101731.69
2018-05-11T05:08:48.318Z,101731.32
2018-05-11T05:11:16.625Z,101736.84
2018-05-11T05:13:44.998Z,101739.32
2018-05-11T05:16:14.251Z,101749.61
2018-05-11T05:18:43.495Z,101744.08
2018-05-11T05:21:12.060Z,101744.30
2018-05-11T05:23:40.386Z,101744.84
2018-05-11T05:26:08.708Z,101752.13
2018-05-11T05:28:37.233Z,101751.59
2018-05-11T05:31:05.573Z,101753.20
2018-05-11T05:33:33.981Z,101745.70
2018-05-11T05:36:02.356Z,101753.58
2018-05-11T05:38:30.717Z,101762.64
2018-05-11T05:40:59.110Z,101750.56
2018-05-11T05:43:27.497Z,101755.08
2018-05-11T05:45:55.934Z,101760.00
2018-05-11T05:48:24.256Z,101754.69
2018-05-11T05:50:52.599Z,101763.75
2018-05-11T05:53:20.929Z,101756.97
2018-05-11T05:55:49.303Z,101766.22
2018-05-11T05:58:17.644Z,101768.03
2018-05-11T06:00:45.955Z,101767.66
2018-05-11T06:03:14.295Z,101771.73
2018-05-11T06:05:42.633Z,101775.33
2018-05-11T06:08:10.972Z,101775.28
2018-05-11T06:10:39.264Z,101775.67
2018-05-11T06:13:07.998Z,101779.17
2018-05-11T06:15:36.360Z,101776.63
2018-05-11T06:18:04.817Z,101774.69
2018-05-11T06:20:33.186Z,101775.38
2018-05-11T06:23:01.591Z,101771.59
2018-05-11T06:25:31.279Z,101762.33
2018-05-11T06:27:59.662Z,101766.22
2018-05-11T06:30:28.013Z,101763.42
2018-05-11T06:32:56.498Z,101761.75
2018-05-11T06:35:24.869Z,101761.39
2018-05-11T06:37:53.177Z,101759.08
2018-05-11T06:40:21.518Z,101759.64
2018-05-11T06:42:50.109Z,101763.93
2018-05-11T06:45:18.419Z,101762.59
2018-05-11T06:47:46.760Z,101764.56
2018-05-11T06:50:15.123Z,101763.56
2018-05-11T06:52:43.451Z,101765.53
2018-05-11T06:55:11.751Z,101774.14
2018-05-11T06:57:40.197Z,101767.08
2018-05-11T07:00:08.465Z,101771.23
2018-05-11T07:02:36.863Z,101778.02
2018-05-11T07:05:05.224Z,101777.91
2018-05-11T07:07:33.772Z,101776.66
2018-05-11T07:10:02.081Z,101777.05
2018-05-11T07:12:30.607Z,101780.16
2018-05-11T07:14:58.985Z,101778.33
2018-05-11T07:17:27.418Z,101778.80
2018-05-11T07:19:56.106Z,101776.23
2018-05-11T07:22:24.428Z,101776.84
2018-05-11T07:24:52.749Z,101776.22
2018-05-11T07:27:21.342Z,101778.31
2018-05-11T07:29:49.667Z,101779.19
2018-05-11T07:32:17.989Z,101778.84
2018-05-11T07:34:46.791Z,101771.09
2018-05-11T07:37:15.089Z,101775.17
2018-05-11T07:39:43.499Z,101776.20
2018-05-11T07:42:11.991Z,101768.02
2018-05-11T07:44:40.379Z,101776.63
2018-05-11T07:47:08.737Z,101772.80
2018-05-11T07:49:37.262Z,101771.14
2018-05-11T07:52:05.597Z,101772.25
2018-05-11T07:54:33.995Z,101780.27
2018-05-11T07:57:02.785Z,101773.48
2018-05-11T07:59:31.222Z,101782.78
2018-05-11T08:01:59.552Z,101776.27
2018-05-11T08:04:27.927Z,101773.66
2018-05-11T08:06:57.260Z,101768.27
2018-05-11T08:09:25.620Z,101770.73
2018-05-11T08:11:54.193Z,101778.41
2018-05-11T08:14:22.613Z,101782.84
2018-05-11T08:16:50.790Z,101769.25
2018-05-11T08:19:19.150Z,101775.87
2018-05-11T08:21:47.480Z,101768.21
2018-05-11T08:24:15.805Z,101769.68
2018-05-11T08:26:44.160Z,101769.14
2018-05-11T08:29:12.478Z,101769.61
2018-05-11T08:31:40.796Z,101769.36
2018-05-11T08:34:09.842Z,101770.14
2018-05-11T08:36:38.228Z,101768.81
2018-05-11T08:39:06.606Z,101760.04
2018-05-11T08:41:34.999Z,101764.44
2018-05-11T08:44:03.388Z,101756.78
2018-05-11T08:46:31.917Z,101762.64
2018-05-11T08:49:00.548Z,101770.17
2018-05-11T08:51:29.014Z,101760.47
2018-05-11T08:53:57.380Z,101758.71
2018-05-11T08:56:25.963Z,101761.91
2018-05-11T08:58:54.293Z,101765.72
2018-05-11T09:01:22.681Z,101764.56
2018-05-11T09:03:51.029Z,101768.08
2018-05-11T09:06:19.323Z,101758.30
2018-05-11T09:08:47.706Z,101754.89
2018-05-11T09:11:16.098Z,101752.70
2018-05-11T09:13:44.349Z,101747.66
2018-05-11T09:16:12.690Z,101749.65
2018-05-11T09:21:32.698Z,101756.98
2018-05-11T09:24:01.230Z,101751.13
2018-05-11T09:26:29.800Z,101747.53
2018-05-11T09:28:58.286Z,101745.16
2018-05-11T09:31:26.734Z,101747.64
2018-05-11T09:33:55.210Z,101752.84
2018-05-11T09:36:24.464Z,101750.67
2018-05-11T09:38:52.790Z,101744.52
2018-05-11T09:41:21.098Z,101741.00
2018-05-11T09:43:49.883Z,101741.59
2018-05-11T09:46:18.225Z,101744.39
2018-05-11T09:48:46.613Z,101753.39
2018-05-11T09:51:14.937Z,101749.25
2018-05-11T09:53:43.262Z,101752.54
2018-05-11T09:56:11.571Z,101756.23
2018-05-11T09:58:39.998Z,101757.42
2018-05-11T10:01:08.329Z,101767.48
2018-05-11T10:03:36.652Z,101760.53
2018-05-11T10:06:05.209Z,101758.00
2018-05-11T10:08:33.545Z,101764.38
2018-05-11T10:11:01.942Z,101764.73
2018-05-11T10:13:30.404Z,101766.48
2018-05-11T10:15:58.813Z,101761.73
2018-05-11T10:18:27.428Z,101758.11
2018-05-11T10:20:56.442Z,101754.39
2018-05-11T10:23:24.733Z,101762.97
2018-05-11T10:25:53.033Z,101760.27
2018-05-11T10:28:21.450Z,101762.55
2018-05-11T10:30:49.766Z,101756.81
2018-05-11T10:33:18.077Z,101753.50
2018-05-11T10:35:46.433Z,101757.24
2018-05-11T10:38:14.741Z,101755.64
2018-05-11T10:40:43.053Z,101757.52
2018-05-11T10:43:11.417Z,101759.53
2018-05-11T10:45:39.729Z,101760.68
2018-05-11T10:48:08.075Z,101763.05
2018-05-11T10:50:36.580Z,101763.84
2018-05-11T10:53:04.929Z,101772.43
2018-05-11T10:55:33.316Z,101761.78
2018-05-11T10:58:01.925Z,101769.50
2018-05-11T11:00:30.361Z,101770.67
2018-05-11T11:02:58.681Z,101765.80
2018-05-11T11:05:27.278Z,101769.75
2018-05-11T11:08:10.730Z,101764.31
2018-05-11T11:13:30.289Z,101775.55
2018-05-11T11:15:58.565Z,101765.29
2018-05-11T11:18:27.217Z,101766.27
2018-05-11T11:20:56.146Z,101773.64
2018-05-11T11:23:24.558Z,101775.81
2018-05-11T11:25:52.915Z,101774.52
2018-05-11T11:28:21.246Z,101785.09
2018-05-11T11:30:49.852Z,101788.70
2018-05-11T11:33:18.135Z,101783.06
2018-05-11T11:35:46.745Z,101784.74
2018-05-11T11:38:15.045Z,101784.83
2018-05-11T11:40:43.357Z,101786.72
2018-05-11T11:43:11.715Z,101786.15
2018-05-11T11:45:40.014Z,101794.14
2018-05-11T11:48:08.340Z,101790.80
2018-05-11T11:50:37.105Z,101784.09
2018-05-11T11:55:59.078Z,101771.88
2018-05-11T11:58:27.455Z,101775.97
2018-05-11T12:00:55.909Z,101768.62
2018-05-11T12:03:24.286Z,101774.63
2018-05-11T12:05:52.622Z,101777.60
2018-05-11T12:08:20.917Z,101768.60
2018-05-11T12:10:49.364Z,101773.32
2018-05-11T12:13:17.686Z,101769.80
2018-05-11T12:15:46.086Z,101769.34
2018-05-11T12:18:14.384Z,101761.15
2018-05-11T12:20:42.696Z,101759.70
2018-05-11T12:23:11.007Z,101752.94
2018-05-11T12:25:39.361Z,101754.42
2018-05-11T12:28:07.719Z,101754.21
2018-05-11T12:30:36.162Z,101762.77
2018-05-11T12:33:04.571Z,101762.27
2018-05-11T12:35:32.966Z,101769.20
2018-05-11T12:38:01.366Z,101768.55
2018-05-11T12:40:30.559Z,101767.66
2018-05-11T12:42:59.117Z,101765.52
2018-05-11T12:45:27.491Z,101760.17
2018-05-11T12:47:55.864Z,101762.27
2018-05-11T12:50:24.218Z,101764.55
2018-05-11T12:52:52.584Z,101763.75
2018-05-11T12:55:21.612Z,101760.88
2018-05-11T12:57:49.913Z,101756.52
2018-05-11T13:00:18.233Z,101754.50
2018-05-11T13:02:47.440Z,101758.55
2018-05-11T13:05:15.778Z,101758.58
2018-05-11T13:07:44.093Z,101752.36
2018-05-11T13:10:12.433Z,101744.97
2018-05-11T13:12:40.785Z,101746.88
2018-05-11T13:15:09.093Z,101750.08
2018-05-11T13:17:38.008Z,101758.98
2018-05-11T13:20:06.326Z,101752.86
2018-05-11T13:22:34.622Z,101749.39
2018-05-11T13:25:03.670Z,101751.38
2018-05-11T13:27:32.025Z,101755.59
2018-05-11T13:30:00.498Z,101755.42
2018-05-11T13:32:28.895Z,101744.74
2018-05-11T13:34:57.503Z,101745.17
2018-05-11T13:37:25.845Z,101755.37
2018-05-11T13:39:54.644Z,101756.31
2018-05-11T13:42:23.089Z,101756.50
2018-05-11T13:44:51.420Z,101753.80
2018-05-11T13:47:20.326Z,101755.73
2018-05-11T13:49:48.654Z,101750.98
2018-05-11T13:52:16.994Z,101751.13
2018-05-11T13:54:45.494Z,101748.99
2018-05-11T13:57:13.795Z,101753.27
2018-05-11T13:59:42.128Z,101754.41
2018-05-11T14:02:10.551Z,101743.34
2018-05-11T14:04:38.948Z,101733.56
2018-05-11T14:07:07.305Z,101739.73
2018-05-11T14:09:36.386Z,101731.05
2018-05-11T14:12:04.796Z,101729.47
2018-05-11T14:14:33.254Z,101724.30
2018-05-11T14:17:01.807Z,101719.08
2018-05-11T14:19:30.149Z,101719.17
2018-05-11T14:21:58.621Z,101720.17
2018-05-11T14:24:27.123Z,101722.16
2018-05-11T14:26:55.613Z,101731.40
2018-05-11T14:29:23.913Z,101730.73
2018-05-11T14:31:52.321Z,101731.48
2018-05-11T14:34:20.725Z,101718.46
2018-05-11T14:36:49.026Z,101714.52
2018-05-11T14:39:17.422Z,101717.82
2018-05-11T14:41:45.841Z,101727.97
2018-05-11T14:44:14.223Z,101724.86
2018-05-11T14:46:43.383Z,101719.14
2018-05-11T14:49:11.703Z,101723.73
2018-05-11T14:51:40.015Z,101714.80
2018-05-11T14:54:08.639Z,101708.85
2018-05-11T14:56:37.008Z,101718.21
2018-05-11T14:59:05.402Z,101710.28
2018-05-11T15:01:35.690Z,101706.98
2018-05-11T15:04:04.927Z,101712.88
2018-05-11T15:06:33.359Z,101705.87
2018-05-11T15:09:01.838Z,101713.70
2018-05-11T15:11:30.226Z,101713.48
2018-05-11T15:13:58.697Z,101707.10
2018-05-11T15:16:27.819Z,101703.14
2018-05-11T15:18:56.198Z,101709.88
2018-05-11T15:21:24.548Z,101705.90
2018-05-11T15:23:53.148Z,101708.22
2018-05-11T15:26:21.499Z,101703.95
2018-05-11T15:28:49.782Z,101699.85
2018-05-11T15:31:18.282Z,101706.20
2018-05-11T15:33:46.554Z,101698.84
2018-05-11T15:36:14.921Z,101695.66
2018-05-11T15:38:43.298Z,101700.34
2018-05-11T15:41:11.631Z,101698.82
2018-05-11T15:43:39.967Z,101694.95
2018-05-11T15:46:08.449Z,101697.61
2018-05-11T15:48:36.816Z,101698.03
2018-05-11T15:51:05.269Z,101695.14
2018-05-11T15:53:33.931Z,101699.26
2018-05-11T15:56:02.337Z,101694.73
2018-05-11T15:58:31.966Z,101695.69
2018-05-11T16:01:00.987Z,101687.45
2018-05-11T16:03:29.764Z,101690.74
2018-05-11T16:05:58.415Z,101692.38
2018-05-11T16:08:27.901Z,101687.72
2018-05-11T16:10:56.816Z,101689.17
2018-05-11T16:13:25.218Z,101680.39
2018-05-11T16:15:53.942Z,101680.30
2018-05-11T16:18:22.262Z,101687.34
2018-05-11T16:20:50.623Z,101682.85
2018-05-11T16:23:19.326Z,101678.98
2018-05-11T16:25:47.619Z,101677.48
2018-05-11T16:28:15.964Z,101683.20
2018-05-11T16:30:44.277Z,101680.34
2018-05-11T16:33:12.581Z,101687.66
2018-05-11T16:35:40.984Z,101676.07
2018-05-11T16:38:09.297Z,101686.02
2018-05-11T16:40:37.721Z,101676.95
2018-05-11T16:43:06.110Z,101683.20
2018-05-11T16:45:34.854Z,101683.48
2018-05-11T16:48:03.444Z,101680.34
2018-05-11T16:50:31.797Z,101684.83
2018-05-11T16:53:01.201Z,101679.09
2018-05-11T16:55:29.683Z,101685.98
2018-05-11T16:57:58.077Z,101688.30
2018-05-11T17:00:27.287Z,101676.50
2018-05-11T17:02:56.027Z,101681.28
2018-05-11T17:05:24.353Z,101677.75
2018-05-11T17:07:54.464Z,101684.93
2018-05-11T17:10:23.839Z,101678.08
2018-05-11T17:12:52.212Z,101680.41
2018-05-11T17:15:20.848Z,101681.24
2018-05-11T17:17:49.367Z,101681.25
2018-05-11T17:20:17.672Z,101681.77
2018-05-11T17:22:46.904Z,101675.45
2018-05-11T17:25:15.389Z,101677.50
2018-05-11T17:27:43.728Z,101677.44
2018-05-11T17:30:12.094Z,101684.18
2018-05-11T17:32:40.470Z,101686.94
2018-05-11T17:35:09.716Z,101687.59
2018-05-11T17:37:38.565Z,101685.52
2018-05-11T17:40:07.363Z,101674.30
2018-05-11T17:42:35.979Z,101680.90
2018-05-11T17:45:04.415Z,101674.50
2018-05-11T17:47:32.782Z,101680.22
2018-05-11T17:50:01.240Z,101672.88
2018-05-11T17:52:30.592Z,101678.13
2018-05-11T17:54:59.189Z,101672.19
2018-05-11T17:57:27.701Z,101671.19
2018-05-11T17:59:56.593Z,101671.59
2018-05-11T18:02:25.012Z,101667.37
2018-05-11T18:04:53.330Z,101673.22
2018-05-11T18:07:22.688Z,101663.38
2018-05-11T18:09:51.180Z,101666.61
2018-05-11T18:12:19.674Z,101670.31
2018-05-11T18:14:48.656Z,101671.33
2018-05-11T18:17:16.982Z,101669.45
2018-05-11T18:19:45.281Z,101676.50
2018-05-11T18:22:14.501Z,101673.65
2018-05-11T18:24:42.894Z,101674.79
2018-05-11T18:27:11.300Z,101675.23
2018-05-11T18:29:40.057Z,101675.75
2018-05-11T18:32:08.387Z,101681.22
2018-05-11T18:34:36.751Z,101676.66
2018-05-11T18:37:05.254Z,101678.08
2018-05-11T18:39:33.750Z,101680.31
2018-05-11T18:42:04.926Z,101677.50
2018-05-11T18:44:35.182Z,101683.73
2018-05-11T18:47:03.885Z,101687.50
2018-05-11T18:49:32.258Z,101683.17
2018-05-11T18:52:00.850Z,101679.74
2018-05-11T18:54:29.695Z,101680.65
2018-05-11T18:56:57.899Z,101684.84
2018-05-11T18:59:26.496Z,101690.77
2018-05-11T19:01:54.885Z,101692.56
2018-05-11T19:04:23.269Z,101695.64
2018-05-11T19:06:51.765Z,101698.84
2018-05-11T19:09:20.174Z,101706.48
2018-05-11T19:11:48.617Z,101704.89
2018-05-11T19:14:17.662Z,101709.05
2018-05-11T19:16:45.954Z,101713.03
2018-05-11T19:19:14.277Z,101710.09
2018-05-11T19:21:42.616Z,101723.19
2018-05-11T19:24:10.950Z,101724.09
2018-05-11T19:26:39.283Z,101723.41
2018-05-11T19:29:08.829Z,101728.86
2018-05-11T19:31:37.720Z,101721.39
2018-05-11T19:34:06.206Z,101726.75
2018-05-11T19:36:35.300Z,101731.31
2018-05-11T19:39:03.832Z,101728.43
2018-05-11T19:41:32.187Z,101729.99
2018-05-11T19:44:02.744Z,101731.77
2018-05-11T19:46:31.123Z,101728.46
2018-05-11T19:48:59.526Z,101734.64
2018-05-11T19:51:28.092Z,101728.48
2018-05-11T19:53:56.673Z,101730.12
2018-05-11T19:56:24.994Z,101726.99
2018-05-11T19:58:53.492Z,101739.32
2018-05-11T20:01:21.830Z,101740.57
2018-05-11T20:03:50.304Z,101737.48
2018-05-11T20:06:19.458Z,101735.79
2018-05-11T20:08:47.811Z,101737.47
2018-05-11T20:11:16.232Z,101737.42
2018-05-11T20:13:46.674Z,101733.14
2018-05-11T20:16:15.040Z,101736.20
2018-05-11T20:18:43.380Z,101739.22
2018-05-11T20:21:11.966Z,101736.11
2018-05-11T20:23:40.353Z,101740.46
2018-05-11T20:26:08.652Z,101742.56
2018-05-11T20:28:37.363Z,101743.46
2018-05-11T20:31:05.785Z,101743.03
2018-05-11T20:33:34.211Z,101751.34
2018-05-11T20:36:03.142Z,101750.31
2018-05-11T20:38:31.532Z,101750.69
2018-05-11T20:41:00.029Z,101748.94
2018-05-11T20:43:29.050Z,101753.13
2018-05-11T20:45:57.635Z,101746.32
2018-05-11T20:48:26.091Z,101743.64
2018-05-11T20:50:54.681Z,101739.95
2018-05-11T20:53:23.043Z,101744.05
2018-05-11T20:55:51.418Z,101742.47
2018-05-11T20:58:20.267Z,101739.22
2018-05-11T21:00:48.615Z,101744.95
2018-05-11T21:03:16.999Z,101741.87
2018-05-11T21:05:45.704Z,101732.93
2018-05-11T21:08:14.041Z,101731.67
2018-05-11T21:10:42.374Z,101733.20
2018-05-11T21:13:10.729Z,101737.46
2018-05-11T21:15:39.050Z,101740.67
2018-05-11T21:18:07.426Z,101744.63
2018-05-11T21:20:35.856Z,101745.17
2018-05-11T21:23:04.412Z,101746.03
2018-05-11T21:25:33.014Z,101743.67
2018-05-11T21:28:01.487Z,101735.93
2018-05-11T21:30:29.951Z,101742.30
2018-05-11T21:32:58.340Z,101738.29
2018-05-11T21:35:26.849Z,101736.11
2018-05-11T21:37:55.211Z,101733.52
2018-05-11T21:40:23.531Z,101738.91
2018-05-11T21:42:52.402Z,101738.08
2018-05-11T21:45:20.700Z,101742.88
2018-05-11T21:47:49.014Z,101745.52
2018-05-11T21:50:17.453Z,101746.59
2018-05-11T21:52:45.788Z,101743.06
2018-05-11T21:55:14.127Z,101738.31
2018-05-11T21:57:42.460Z,101736.14
2018-05-11T22:00:10.768Z,101737.22
2018-05-11T22:02:39.109Z,101735.96
2018-05-11T22:05:08.105Z,101736.73
2018-05-11T22:07:36.517Z,101738.66
2018-05-11T22:10:04.878Z,101744.31
2018-05-11T22:12:33.245Z,101735.16
2018-05-11T22:15:01.718Z,101732.31
2018-05-11T22:17:30.123Z,101738.47
2018-05-11T22:20:00.423Z,101731.92
2018-05-11T22:22:28.792Z,101735.75
2018-05-11T22:24:57.133Z,101736.45
2018-05-11T22:27:25.688Z,101738.50
2018-05-11T22:29:54.068Z,101737.61
2018-05-11T22:32:22.429Z,101736.20
2018-05-11T22:34:50.754Z,101744.99
2018-05-11T22:37:21.127Z,101745.36
2018-05-11T22:39:49.494Z,101754.58
2018-05-11T22:42:17.832Z,101745.14
2018-05-11T22:44:52.419Z,101744.13
2018-05-11T22:47:20.874Z,101736.33
2018-05-11T22:49:49.181Z,101737.48
2018-05-11T22:52:17.529Z,101731.14
2018-05-11T22:54:46.159Z,101735.61
2018-05-11T22:57:14.515Z,101726.91
2018-05-11T22:59:42.869Z,101732.02
2018-05-11T23:02:12.422Z,101725.63
2018-05-11T23:04:40.791Z,101725.81
2018-05-11T23:07:09.340Z,101733.81
2018-05-11T23:09:37.675Z,101729.16
2018-05-11T23:12:06.049Z,101726.53
2018-05-11T23:14:34.417Z,101718.20
2018-05-11T23:17:02.878Z,101722.30
2018-05-11T23:19:31.202Z,101717.72
2018-05-11T23:22:00.351Z,101719.73
2018-05-11T23:24:29.362Z,101718.75
2018-05-11T23:26:57.723Z,101715.39
2018-05-11T23:29:26.630Z,101718.14
2018-05-11T23:31:56.138Z,101715.33
2018-05-11T23:34:24.847Z,101712.97
2018-05-11T23:36:53.355Z,101711.87
2018-05-11T23:39:21.834Z,101714.06
2018-05-11T23:41:50.161Z,101713.80
2018-05-11T23:44:18.531Z,101711.34
2018-05-11T23:46:46.891Z,101714.07
2018-05-11T23:49:15.241Z,101704.83
2018-05-11T23:51:43.577Z,101700.77
2018-05-11T23:54:12.105Z,101699.56
2018-05-11T23:56:40.450Z,101694.77
2018-05-11T23:59:08.833Z,101687.73
